Time;durP1;ratioP1;P1;durP2;ratioP2;P2;SDS_P1;SDS_P2;PMS_P1;PMS_P2;Temp;Humidity;BMP_temperature;BMP_pressure;BME280_temperature;BME280_humidity;BME280_pressure;Samples;Min_cycle;Max_cycle;Signal;HPM_P1;HPM_P2
2022/07/29 00:00:14;;;;;;;6.70;6.10;;;;;;;25.11;100.00;100168.69;5155227;27;20196;-74
2022/07/29 00:02:41;;;;;;;7.22;6.53;;;;;;;24.10;100.00;99999.69;5154489;27;20192;-74
2022/07/29 00:05:09;;;;;;;7.35;6.57;;;;;;;24.94;100.00;100144.66;5154160;27;20223;-74
2022/07/29 00:07:36;;;;;;;6.55;5.95;;;;;;;24.80;100.00;100139.91;5154095;27;20188;-74
2022/07/29 00:10:04;;;;;;;8.40;6.07;;;;;;;24.84;100.00;100160.09;5154482;27;20694;-74
2022/07/29 00:12:31;;;;;;;7.05;6.35;;;;;;;24.71;100.00;100158.88;5154467;27;20667;-74
2022/07/29 00:14:59;;;;;;;7.03;6.43;;;;;;;24.78;100.00;100147.09;5154402;27;20200;-74
2022/07/29 00:17:26;;;;;;;9.95;6.78;;;;;;;24.83;100.00;100136.28;5154440;27;20210;-74
2022/07/29 00:19:53;;;;;;;6.70;6.00;;;;;;;24.73;100.00;100129.63;5154601;27;20200;-74
2022/07/29 00:22:20;;;;;;;8.25;6.40;;;;;;;24.70;100.00;100149.19;5153468;27;20200;-74
2022/07/29 00:24:48;;;;;;;6.63;6.03;;;;;;;24.48;100.00;100141.25;5153948;27;20200;-75
2022/07/29 00:27:15;;;;;;;6.57;5.78;;;;;;;24.48;100.00;100140.38;5154623;27;20200;-74
2022/07/29 00:29:42;;;;;;;6.60;6.00;;;;;;;24.39;100.00;100122.22;5154104;27;20196;-74
2022/07/29 00:32:10;;;;;;;6.50;5.90;;;;;;;24.50;100.00;100138.56;5153498;27;20196;-74
2022/07/29 00:37:21;;;;;;;7.30;5.95;;;;;;;24.30;100.00;100109.31;5153940;27;20774;-74
2022/07/29 00:39:48;;;;;;;9.60;5.68;;;;;;;24.26;100.00;100123.66;5153195;27;20200;-74
2022/07/29 00:42:16;;;;;;;6.65;5.85;;;;;;;24.31;100.00;100126.97;5153755;27;20199;-74
2022/07/29 00:44:43;;;;;;;11.57;6.47;;;;;;;24.21;100.00;100129.13;5153846;27;20231;-73
2022/07/29 00:47:12;;;;;;;6.22;5.70;;;;;;;24.25;100.00;100132.50;5116965;27;20203;-74
2022/07/29 00:49:40;;;;;;;11.13;7.70;;;;;;;24.23;100.00;100123.75;5153500;27;20682;-74
2022/07/29 00:52:08;;;;;;;8.52;7.55;;;;;;;24.00;100.00;100096.38;5153834;27;20192;-73
2022/07/29 00:54:36;;;;;;;8.00;6.85;;;;;;;24.03;100.00;100112.13;5153130;27;20193;-73
2022/07/29 00:57:03;;;;;;;8.50;7.63;;;;;;;24.01;100.00;100119.25;5153516;27;20192;-74
2022/07/29 00:59:30;;;;;;;10.48;7.45;;;;;;;23.90;100.00;100099.44;5153115;27;20582;-74
2022/07/29 01:01:57;;;;;;;7.85;7.05;;;;;;;23.98;100.00;100115.88;5153573;27;20192;-73
2022/07/29 01:04:25;;;;;;;8.35;7.55;;;;;;;24.02;100.00;100122.78;5152837;27;20223;-74
2022/07/29 01:06:53;;;;;;;8.98;7.82;;;;;;;23.94;100.00;100116.91;5099542;27;20223;-74
2022/07/29 01:09:20;;;;;;;8.20;7.45;;;;;;;23.96;100.00;100113.31;5116390;27;20200;-73
2022/07/29 01:11:48;;;;;;;8.77;7.00;;;;;;;23.89;100.00;100098.56;5116849;27;20188;-74
2022/07/29 01:14:16;;;;;;;11.23;7.97;;;;;;;23.98;100.00;100108.78;5153027;27;20207;-74
2022/07/29 01:16:47;;;;;;;7.38;6.78;;;;;;;24.03;100.00;100117.44;5153138;27;20204;-74
2022/07/29 01:19:34;;;;;;;8.07;7.28;;;;;;;24.09;100.00;100119.84;5153475;27;20284;-74
2022/07/29 01:22:13;;;;;;;10.35;7.85;;;;;;;24.11;100.00;100128.56;5152779;27;20211;-74
2022/07/29 01:25:08;;;;;;;8.48;7.55;;;;;;;24.07;100.00;100121.69;5104428;27;20200;-73
2022/07/29 01:27:45;;;;;;;8.50;7.47;;;;;;;24.12;100.00;100132.94;5068443;28;20673;-74
2022/07/29 01:30:14;;;;;;;9.07;7.50;;;;;;;23.96;100.00;100113.31;5051923;28;20198;-74
2022/07/29 01:32:42;;;;;;;7.85;6.97;;;;;;;24.02;100.00;100123.66;5067833;28;20206;-74
2022/07/29 01:35:16;;;;;;;8.10;7.30;;;;;;;24.01;100.00;100134.28;5068084;28;20623;-73
2022/07/29 01:37:47;;;;;;;9.43;8.10;;;;;;;23.91;100.00;100123.19;5068163;28;20195;-73
2022/07/29 01:40:20;;;;;;;8.38;7.60;;;;;;;23.80;100.00;100130.69;5040700;28;20210;-74
2022/07/29 01:42:52;;;;;;;11.82;8.15;;;;;;;23.80;100.00;100133.34;5068470;28;20289;-73
2022/07/29 01:45:27;;;;;;;9.63;8.18;;;;;;;23.65;100.00;100126.84;5068358;28;20227;-73
2022/07/29 01:48:01;;;;;;;10.02;8.93;;;;;;;23.68;100.00;100131.19;5068006;28;20211;-73
2022/07/29 01:51:20;;;;;;;11.52;8.88;;;;;;;23.67;100.00;100118.84;5068305;28;20203;-73
2022/07/29 01:54:02;;;;;;;10.07;9.07;;;;;;;23.30;100.00;100081.41;5068037;28;20195;-73
2022/07/29 01:56:33;;;;;;;9.98;8.98;;;;;;;23.19;100.00;100087.94;5068374;28;20210;-73
2022/07/29 01:59:01;;;;;;;11.20;9.27;;;;;;;23.31;100.00;100106.94;5068041;28;20219;-73
2022/07/29 02:01:32;;;;;;;9.63;8.73;;;;;;;23.12;100.00;100089.09;5068269;28;20352;-73
2022/07/29 02:04:03;;;;;;;13.15;9.02;;;;;;;23.04;100.00;100107.03;5074310;27;20667;-75
2022/07/29 02:06:33;;;;;;;9.52;8.55;;;;;;;23.06;100.00;100105.19;5131196;27;20220;-74
2022/07/29 02:09:02;;;;;;;9.00;8.10;;;;;;;22.94;100.00;100100.31;5148232;27;20203;-74
2022/07/29 02:11:32;;;;;;;10.32;9.25;;;;;;;22.78;100.00;100069.19;5152010;27;20250;-73
2022/07/29 02:14:00;;;;;;;10.23;8.98;;;;;;;22.92;100.00;100106.59;5151982;27;20276;-74
2022/07/29 02:16:31;;;;;;;10.13;8.13;;;;;;;22.82;100.00;100063.75;5152232;27;20201;-74
2022/07/29 02:19:01;;;;;;;10.57;8.07;;;;;;;23.06;100.00;100110.47;5151888;27;20226;-74
2022/07/29 02:21:31;;;;;;;11.95;8.50;;;;;;;22.98;100.00;100112.53;5152085;27;20195;-74
2022/07/29 02:24:01;;;;;;;11.15;8.88;;;;;;;22.83;100.00;100083.97;5152115;27;20204;-74
2022/07/29 02:26:30;;;;;;;9.13;8.25;;;;;;;22.82;100.00;100100.78;5152029;27;20722;-74
2022/07/29 02:29:00;;;;;;;9.63;8.63;;;;;;;22.79;100.00;100089.44;5152178;27;20188;-74
2022/07/29 02:31:33;;;;;;;10.23;9.15;;;;;;;22.71;100.00;100081.78;5151869;27;20663;-74
2022/07/29 02:34:01;;;;;;;11.30;9.30;;;;;;;22.72;100.00;100102.84;5151687;27;20200;-73
2022/07/29 02:36:30;;;;;;;10.80;9.32;;;;;;;22.79;100.00;100110.59;5150067;27;20214;-75
2022/07/29 02:39:00;;;;;;;13.70;10.52;;;;;;;22.77;100.00;100109.75;5151634;27;20188;-74
2022/07/29 02:41:30;;;;;;;11.57;9.52;;;;;;;22.61;100.00;100078.56;5151170;27;20227;-74
2022/07/29 02:43:59;;;;;;;10.88;9.25;;;;;;;22.78;100.00;100099.16;5151346;27;20655;-74
2022/07/29 02:46:32;;;;;;;11.32;9.50;;;;;;;22.68;100.00;100084.53;5151304;27;20230;-74
2022/07/29 02:49:05;;;;;;;11.55;9.95;;;;;;;22.84;100.00;100104.22;5150694;27;20283;-74
2022/07/29 02:51:42;;;;;;;16.30;10.13;;;;;;;22.85;100.00;100105.09;5151216;27;20671;-74
2022/07/29 02:54:15;;;;;;;9.95;9.05;;;;;;;22.77;100.00;100097.41;5111230;28;20196;-74
2022/07/29 02:56:45;;;;;;;10.60;9.23;;;;;;;22.83;100.00;100104.28;5143879;27;20252;-74
2022/07/29 02:59:14;;;;;;;13.02;9.40;;;;;;;22.72;100.00;100099.38;5151686;27;20238;-74
2022/07/29 03:01:44;;;;;;;11.25;9.50;;;;;;;22.80;100.00;100101.72;5151143;27;20194;-73
2022/07/29 03:04:13;;;;;;;11.75;8.93;;;;;;;22.75;100.00;100090.47;5114592;27;20220;-73
2022/07/29 03:06:42;;;;;;;9.88;8.85;;;;;;;22.78;100.00;100093.84;5151380;27;20224;-74
2022/07/29 03:09:11;;;;;;;9.55;8.20;;;;;;;22.81;100.00;100095.53;5151395;27;20192;-74
2022/07/29 03:11:39;;;;;;;9.90;8.35;;;;;;;22.91;100.00;100121.59;5151197;27;20188;-74
2022/07/29 03:14:06;;;;;;;9.85;7.85;;;;;;;22.86;100.00;100123.56;5150799;27;20200;-76
2022/07/29 03:16:36;;;;;;;9.43;7.70;;;;;;;22.80;100.00;100123.75;5153291;27;20207;-76
2022/07/29 03:19:05;;;;;;;12.82;7.90;;;;;;;23.10;100.00;100114.75;5155579;27;20740;-73
2022/07/29 03:21:32;;;;;;;11.77;7.70;;;;;;;23.38;100.00;100129.63;5155176;27;20192;-73
2022/07/29 03:23:59;;;;;;;9.40;7.47;;;;;;;23.45;100.00;100123.22;5155582;27;20203;-72
2022/07/29 03:26:27;;;;;;;18.05;7.40;;;;;;;23.28;100.00;100125.59;5155533;27;20919;-73
2022/07/29 03:28:53;;;;;;;11.10;7.78;;;;;;;23.39;100.00;100123.41;5154877;27;20204;-73
2022/07/29 03:31:20;;;;;;;8.05;7.32;;;;;;;23.50;100.00;100115.97;5155472;27;20200;-72
2022/07/29 03:33:47;;;;;;;10.68;7.80;;;;;;;23.68;100.00;100128.53;5154597;27;20181;-73
2022/07/29 03:36:15;;;;;;;9.10;8.20;;;;;;;23.87;100.00;100136.63;5154791;27;20675;-72
2022/07/29 03:38:44;;;;;;;11.73;8.55;;;;;;;23.98;100.00;100124.69;5118450;27;20196;-72
2022/07/29 03:41:13;;;;;;;8.90;7.90;;;;;;;24.13;100.00;100155.91;5154617;27;20188;-72
2022/07/29 03:43:42;;;;;;;9.73;7.95;;;;;;;24.08;100.00;100152.53;5154308;27;20203;-72
2022/07/29 03:46:11;;;;;;;11.50;8.10;;;;;;;24.18;100.00;100132.78;5154846;27;20218;-73
2022/07/29 03:48:43;;;;;;;9.73;7.68;;;;;;;24.46;100.00;100156.38;5155124;27;20219;-72
2022/07/29 03:51:10;;;;;;;8.35;7.57;;;;;;;24.46;100.00;100159.03;5154458;27;20192;-72
2022/07/29 03:53:38;;;;;;;7.25;6.55;;;;;;;24.70;100.00;100157.13;5154439;27;20659;-71
2022/07/29 03:56:07;;;;;;;12.02;6.82;;;;;;;24.56;100.00;100159.50;5154226;27;20203;-72
2022/07/29 03:58:35;;;;;;;9.63;6.25;;;;;;;24.67;100.00;100168.75;5154885;27;20196;-72
2022/07/29 04:01:02;;;;;;;7.15;6.43;;;;;;;24.54;100.00;100150.75;5154863;27;20200;-72
2022/07/29 04:03:30;;;;;;;7.13;6.20;;;;;;;25.03;100.00;100166.38;5153985;27;20674;-72
2022/07/29 04:06:02;;;;;;;12.48;6.30;;;;;;;25.62;100.00;100154.91;5153621;27;20228;-72
2022/07/29 04:08:29;;;;;;;8.18;6.85;;;;;;;26.29;100.00;100168.59;5109603;27;20196;-73
2022/07/29 04:10:57;;;;;;;7.40;6.57;;;;;;;26.58;100.00;100185.81;5142466;27;20193;-72
2022/07/29 04:13:24;;;;;;;7.93;5.85;;;;;;;25.75;100.00;100185.34;5144274;27;20188;-74
2022/07/29 04:15:51;;;;;;;6.90;6.28;;;;;;;25.75;100.00;100179.16;5144693;27;20234;-73
2022/07/29 04:18:18;;;;;;;8.23;5.70;;;;;;;25.53;100.00;100179.25;5093579;27;20184;-73
2022/07/29 04:20:45;;;;;;;7.28;6.15;;;;;;;25.91;100.00;100189.00;5145512;27;20200;-72
2022/07/29 04:23:12;;;;;;;9.57;6.25;;;;;;;26.98;100.00;100201.56;5142772;27;20666;-73
2022/07/29 04:25:39;;;;;;;7.07;6.38;;;;;;;27.79;100.00;100186.72;5144958;27;20200;-73
2022/07/29 04:28:08;;;;;;;8.20;6.25;;;;;;;28.33;100.00;100217.50;5142415;27;20240;-73
2022/07/29 04:30:36;;;;;;;6.60;4.95;;;;;;;28.26;100.00;100216.97;5091167;27;21813;-72
2022/07/29 04:33:04;;;;;;;6.05;5.43;;;;;;;27.87;100.00;100206.66;5144712;27;20208;-73
2022/07/29 04:35:34;;;;;;;6.72;6.00;;;;;;;28.05;100.00;100224.31;5147003;27;20200;-73
2022/07/29 04:38:01;;;;;;;5.70;5.20;;;;;;;28.22;100.00;100231.41;5131536;27;20195;-73
2022/07/29 04:40:28;;;;;;;11.73;5.38;;;;;;;29.13;100.00;100222.69;5143022;27;20207;-73
2022/07/29 04:42:55;;;;;;;7.57;5.38;;;;;;;29.95;100.00;100235.47;5148663;27;20209;-73
2022/07/29 04:45:24;;;;;;;6.80;5.75;;;;;;;29.99;98.30;100237.00;5141910;27;20199;-73
2022/07/29 04:47:50;;;;;;;6.45;5.82;;;;;;;29.88;96.64;100228.78;5142337;27;20241;-73
2022/07/29 04:50:17;;;;;;;7.30;5.80;;;;;;;30.05;95.52;100216.16;5142926;27;20656;-72
2022/07/29 04:52:44;;;;;;;9.15;6.32;;;;;;;30.16;94.54;100232.41;5143427;27;20214;-71
2022/07/29 04:55:11;;;;;;;9.27;6.72;;;;;;;29.81;97.65;100229.22;5143314;27;20199;-74
2022/07/29 04:57:38;;;;;;;10.98;6.28;;;;;;;29.72;99.92;100225.31;5152150;27;20670;-73
2022/07/29 05:00:07;;;;;;;7.43;6.05;;;;;;;29.48;100.00;100229.47;5153453;27;20192;-73
2022/07/29 05:02:35;;;;;;;6.90;5.90;;;;;;;29.99;98.88;100220.97;5153344;27;20184;-73
2022/07/29 05:05:02;;;;;;;10.88;6.43;;;;;;;30.45;95.31;100226.09;5153365;27;20702;-71
2022/07/29 05:07:29;;;;;;;9.02;5.93;;;;;;;30.76;93.43;100236.50;5153123;27;20215;-73
2022/07/29 05:09:56;;;;;;;6.43;5.82;;;;;;;30.04;95.93;100235.88;5134054;27;20195;-75
2022/07/29 05:12:23;;;;;;;7.43;5.68;;;;;;;29.38;100.00;100225.66;5099027;27;20201;-73
2022/07/29 05:14:50;;;;;;;6.22;5.63;;;;;;;29.23;100.00;100221.19;5153029;27;20214;-74
2022/07/29 05:17:17;;;;;;;8.48;6.07;;;;;;;28.31;100.00;100182.06;5153338;27;20206;-73
2022/07/29 05:19:45;;;;;;;5.68;5.25;;;;;;;28.39;100.00;100211.84;5151803;27;20227;-74
2022/07/29 05:22:12;;;;;;;6.20;5.60;;;;;;;28.74;100.00;100220.53;5152117;27;20226;-73
2022/07/29 05:24:39;;;;;;;8.13;5.60;;;;;;;28.16;100.00;100231.78;5150959;27;20191;-72
2022/07/29 05:27:06;;;;;;;7.55;5.25;;;;;;;27.85;100.00;100237.00;5150998;27;20304;-73
2022/07/29 05:29:33;;;;;;;6.50;5.43;;;;;;;28.44;100.00;100245.28;5152138;27;20199;-73
2022/07/29 05:31:59;;;;;;;5.70;4.97;;;;;;;28.00;100.00;100247.69;5152532;27;20218;-72
2022/07/29 05:34:26;;;;;;;9.02;5.82;;;;;;;28.73;100.00;100237.47;5152468;27;20188;-72
2022/07/29 05:36:54;;;;;;;8.02;5.55;;;;;;;28.86;100.00;100244.69;5153036;27;20195;-72
2022/07/29 05:39:21;;;;;;;7.32;5.38;;;;;;;28.73;100.00;100232.16;5152613;27;20191;-72
2022/07/29 05:41:48;;;;;;;5.97;5.00;;;;;;;28.61;100.00;100236.31;5152371;27;20203;-72
2022/07/29 05:44:15;;;;;;;5.53;5.03;;;;;;;28.89;100.00;100247.22;5152734;27;20609;-72
2022/07/29 05:46:42;;;;;;;5.10;4.70;;;;;;;28.88;99.69;100245.47;5153303;27;20220;-72
2022/07/29 05:49:09;;;;;;;5.30;4.90;;;;;;;28.37;100.00;100245.72;5152364;27;20678;-72
2022/07/29 05:51:36;;;;;;;8.65;4.93;;;;;;;28.39;100.00;100238.50;5098556;27;20192;-73
2022/07/29 05:54:04;;;;;;;7.07;5.28;;;;;;;28.28;100.00;100241.78;5132367;27;20640;-75
2022/07/29 05:56:31;;;;;;;5.95;5.15;;;;;;;27.67;100.00;100244.19;5132248;27;20574;-73
2022/07/29 05:58:58;;;;;;;5.97;5.15;;;;;;;28.08;100.00;100234.84;5136133;27;20199;-74
2022/07/29 06:01:25;;;;;;;5.53;5.10;;;;;;;28.20;100.00;100222.66;5151582;27;20222;-73
2022/07/29 06:03:52;;;;;;;6.63;5.13;;;;;;;28.19;100.00;100236.06;5099107;27;20210;-72
2022/07/29 06:06:19;;;;;;;4.95;4.55;;;;;;;28.45;100.00;100243.50;5152367;27;20223;-74
2022/07/29 06:08:47;;;;;;;7.50;5.10;;;;;;;27.70;100.00;100241.34;5151853;27;20187;-73
2022/07/29 06:11:15;;;;;;;5.00;4.70;;;;;;;27.77;100.00;100224.09;5151747;27;20203;-71
2022/07/29 06:13:42;;;;;;;5.70;4.65;;;;;;;27.96;100.00;100243.50;5151829;27;20188;-73
2022/07/29 06:16:09;;;;;;;5.22;4.82;;;;;;;28.14;100.00;100248.81;5151583;27;20212;-74
2022/07/29 06:18:36;;;;;;;5.95;4.63;;;;;;;27.92;99.88;100244.59;5152129;27;20269;-72
2022/07/29 06:21:08;;;;;;;4.80;4.40;;;;;;;28.31;99.71;100240.72;5150942;27;20592;-73
2022/07/29 06:23:35;;;;;;;4.97;4.47;;;;;;;28.11;96.72;100248.97;5151991;27;20196;-73
2022/07/29 06:26:02;;;;;;;5.28;4.60;;;;;;;27.75;96.09;100249.13;5134789;27;20204;-73
2022/07/29 06:28:30;;;;;;;9.68;4.60;;;;;;;27.80;97.32;100255.91;5146572;27;20215;-73
2022/07/29 06:30:57;;;;;;;4.82;4.43;;;;;;;27.44;95.44;100252.47;5150699;27;20200;-73
2022/07/29 06:33:23;;;;;;;4.68;4.20;;;;;;;27.82;96.75;100258.50;5142273;27;20188;-73
2022/07/29 06:35:50;;;;;;;4.60;4.07;;;;;;;28.18;97.55;100253.03;5151484;27;20746;-73
2022/07/29 06:38:17;;;;;;;3.53;3.22;;;;;;;27.84;81.01;100252.13;5151541;27;20207;-73
2022/07/29 06:41:03;;;;;;;6.38;4.32;;;;;;;27.92;82.63;100257.94;5098091;27;20188;-73
2022/07/29 06:43:35;;;;;;;4.68;4.20;;;;;;;27.98;71.99;100248.72;5115159;27;20195;-74
2022/07/29 06:46:04;;;;;;;5.05;3.17;;;;;;;27.74;71.05;100242.91;5152009;27;20196;-74
2022/07/29 06:48:31;;;;;;;4.72;3.67;;;;;;;27.91;74.54;100258.00;5147914;27;20710;-72
2022/07/29 06:50:58;;;;;;;3.85;3.55;;;;;;;28.18;72.23;100261.03;5147639;27;20208;-72
2022/07/29 06:53:25;;;;;;;4.28;3.90;;;;;;;28.23;68.75;100248.28;5149915;27;20315;-72
2022/07/29 06:55:52;;;;;;;4.70;3.78;;;;;;;28.43;70.00;100264.06;5093172;27;20200;-73
2022/07/29 06:58:20;;;;;;;5.20;3.67;;;;;;;28.75;66.19;100263.16;5153427;27;20552;-73
2022/07/29 07:00:49;;;;;;;3.72;3.42;;;;;;;28.88;63.91;100268.66;5154756;27;20207;-73
2022/07/29 07:03:16;;;;;;;4.05;3.28;;;;;;;28.85;62.67;100258.16;5148388;27;20199;-73
2022/07/29 07:05:43;;;;;;;3.60;3.40;;;;;;;28.54;62.56;100249.16;5155255;27;20727;-73
2022/07/29 07:08:11;;;;;;;5.15;3.80;;;;;;;28.43;64.37;100253.41;5154755;27;20239;-73
2022/07/29 07:10:38;;;;;;;5.95;3.45;;;;;;;28.50;65.52;100250.28;5154998;27;20192;-73
2022/07/29 07:13:05;;;;;;;5.40;4.03;;;;;;;28.45;65.85;100265.69;5154625;27;20200;-73
2022/07/29 07:15:32;;;;;;;4.57;3.70;;;;;;;28.47;65.56;100238.91;5155499;27;20665;-73
2022/07/29 07:18:00;;;;;;;6.55;4.03;;;;;;;28.73;65.80;100254.38;5155110;27;20188;-73
2022/07/29 07:20:27;;;;;;;3.60;2.53;;;;;;;28.55;64.11;100234.88;5155092;27;20188;-73
2022/07/29 07:22:54;;;;;;;4.53;4.10;;;;;;;28.74;69.75;100245.41;5154912;27;20219;-73
2022/07/29 07:25:21;;;;;;;4.93;4.43;;;;;;;29.05;63.18;100248.03;5148758;27;20211;-72
2022/07/29 07:27:48;;;;;;;4.75;3.80;;;;;;;28.97;61.66;100244.06;5141184;27;20208;-73
2022/07/29 07:30:15;;;;;;;3.72;3.33;;;;;;;28.69;59.65;100228.78;5101420;27;20196;-72
2022/07/29 07:32:42;;;;;;;8.48;3.88;;;;;;;29.01;62.75;100237.59;5154313;27;20592;-72
2022/07/29 07:35:11;;;;;;;3.83;3.40;;;;;;;28.98;65.31;100252.00;5153770;27;20241;-72
2022/07/29 07:37:40;;;;;;;3.80;3.60;;;;;;;29.04;60.94;100245.44;5154402;27;20208;-72
2022/07/29 07:40:09;;;;;;;5.72;4.20;;;;;;;29.29;59.00;100248.41;5154209;27;20203;-73
2022/07/29 07:42:36;;;;;;;4.80;4.28;;;;;;;29.88;60.67;100250.19;5154079;27;20207;-73
2022/07/29 07:45:03;;;;;;;5.82;3.22;;;;;;;29.56;54.80;100255.75;5153129;27;20211;-73
2022/07/29 07:47:29;;;;;;;3.95;3.65;;;;;;;29.67;54.25;100238.09;5090944;27;20321;-72
2022/07/29 07:49:56;;;;;;;10.40;3.67;;;;;;;29.76;54.94;100252.69;5147900;27;20619;-72
2022/07/29 07:52:24;;;;;;;4.10;3.80;;;;;;;30.12;57.29;100250.47;5138485;27;20200;-75
2022/07/29 07:54:52;;;;;;;4.25;3.85;;;;;;;30.31;56.97;100252.84;5136528;27;20207;-74
2022/07/29 07:57:19;;;;;;;4.43;4.13;;;;;;;29.88;53.84;100236.81;5143535;27;20723;-74
2022/07/29 07:59:46;;;;;;;6.90;4.55;;;;;;;30.35;55.84;100251.69;5143494;27;20204;-75
2022/07/29 08:02:13;;;;;;;11.07;5.00;;;;;;;30.17;54.63;100250.19;5141604;27;20191;-76
2022/07/29 08:04:40;;;;;;;4.50;4.10;;;;;;;30.22;54.66;100232.00;5144521;27;20599;-75
2022/07/29 08:07:08;;;;;;;4.70;3.97;;;;;;;30.15;54.75;100246.72;5147286;27;20200;-75
2022/07/29 08:09:37;;;;;;;7.47;4.70;;;;;;;30.18;54.38;100250.06;5114645;27;20757;-75
2022/07/29 08:12:05;;;;;;;5.07;4.30;;;;;;;30.22;55.43;100227.50;5154698;27;20199;-77
2022/07/29 08:14:33;;;;;;;10.98;4.00;;;;;;;30.55;55.04;100251.28;5146392;27;20199;-76
2022/07/29 08:17:00;;;;;;;4.70;4.13;;;;;;;30.52;53.70;100235.44;5135389;27;20244;-74
2022/07/29 08:19:27;;;;;;;4.47;4.07;;;;;;;30.71;54.69;100227.94;5154542;27;20362;-75
2022/07/29 08:21:54;;;;;;;4.47;4.05;;;;;;;30.72;55.10;100226.94;5145842;27;20199;-75
2022/07/29 08:27:07;;;;;;;3.85;3.55;;;;;;;30.66;51.14;100243.44;5142625;27;20207;-76
2022/07/29 08:29:34;;;;;;;4.43;3.58;;;;;;;30.73;50.49;100238.53;5143089;27;20199;-75
2022/07/29 08:32:00;;;;;;;4.55;4.25;;;;;;;30.84;49.79;100239.53;5144741;27;20263;-75
2022/07/29 08:34:28;;;;;;;5.85;3.70;;;;;;;31.17;48.81;100235.59;5153828;27;20199;-73
2022/07/29 08:36:55;;;;;;;2.92;2.75;;;;;;;30.86;51.78;100237.59;5154408;27;20203;-74
2022/07/29 08:39:22;;;;;;;5.10;3.55;;;;;;;30.70;48.72;100244.94;5153982;27;20204;-75
2022/07/29 08:41:50;;;;;;;3.13;2.92;;;;;;;30.79;48.71;100238.97;5153909;27;20705;-72
2022/07/29 08:44:19;;;;;;;5.65;2.95;;;;;;;30.83;49.26;100232.44;5100732;27;20210;-70
2022/07/29 08:46:46;;;;;;;3.72;2.50;;;;;;;30.95;47.33;100236.16;5144107;27;20705;-72
2022/07/29 08:49:13;;;;;;;5.55;3.70;;;;;;;30.92;47.64;100221.16;5147659;27;20219;-72
2022/07/29 08:51:41;;;;;;;3.53;3.20;;;;;;;31.32;48.47;100218.50;5146099;27;20251;-75
2022/07/29 08:54:10;;;;;;;3.22;3.03;;;;;;;31.22;47.82;100212.88;5150216;27;20207;-76
2022/07/29 08:56:39;;;;;;;3.15;2.83;;;;;;;30.97;48.37;100205.63;5152195;27;20188;-74
2022/07/29 08:59:09;;;;;;;3.20;3.10;;;;;;;31.13;47.62;100218.00;5153569;27;20203;-75
2022/07/29 09:01:39;;;;;;;3.40;3.20;;;;;;;30.91;48.48;100214.06;5153104;27;20204;-73
2022/07/29 09:04:11;;;;;;;3.60;3.30;;;;;;;31.28;47.84;100208.94;5150237;27;20231;-73
2022/07/29 09:06:43;;;;;;;3.58;2.70;;;;;;;31.40;45.91;100208.94;5150825;27;20192;-73
2022/07/29 09:09:10;;;;;;;7.30;3.13;;;;;;;31.58;45.06;100214.00;5152568;27;20223;-73
2022/07/29 09:11:38;;;;;;;3.80;3.45;;;;;;;31.59;43.24;100213.06;5142028;27;20775;-74
2022/07/29 09:14:05;;;;;;;5.43;2.60;;;;;;;31.55;42.63;100207.06;5151147;27;20203;-73
2022/07/29 09:16:48;;;;;;;3.00;2.90;;;;;;;31.77;42.98;100204.59;5144881;27;20269;-73
2022/07/29 09:19:22;;;;;;;4.22;3.83;;;;;;;31.92;43.05;100219.59;5136991;27;20588;-73
2022/07/29 09:22:01;;;;;;;3.92;3.00;;;;;;;31.94;43.81;100190.84;5148936;27;20210;-74
2022/07/29 09:24:38;;;;;;;3.58;2.85;;;;;;;32.23;43.65;100204.88;5138825;27;20187;-73
2022/07/29 09:27:11;;;;;;;3.03;2.80;;;;;;;32.12;42.24;100207.47;5152623;27;20203;-77
2022/07/29 09:29:38;;;;;;;3.33;2.70;;;;;;;32.21;41.04;100193.41;5140852;27;20224;-78
2022/07/29 09:32:10;;;;;;;3.00;2.50;;;;;;;32.10;41.20;100195.13;5141731;27;20246;-77
2022/07/29 09:34:38;;;;;;;6.80;3.05;;;;;;;32.35;41.26;100187.00;5150933;27;21515;-78
2022/07/29 09:37:06;;;;;;;2.63;2.50;;;;;;;31.95;41.79;100171.09;5149163;27;20199;-79
2022/07/29 09:39:34;;;;;;;5.88;4.13;;;;;;;32.08;41.83;100210.47;5107722;27;20204;-80
2022/07/29 09:42:03;;;;;;;2.60;2.40;;;;;;;31.99;42.39;100198.56;5151920;27;20195;-75
2022/07/29 09:44:42;;;;;;;4.72;2.40;;;;;;;32.34;41.28;100199.56;5151472;27;20199;-73
2022/07/29 09:47:11;;;;;;;2.95;2.75;;;;;;;32.47;41.00;100196.84;5145184;27;20195;-76
2022/07/29 09:49:53;;;;;;;2.63;2.45;;;;;;;32.60;40.14;100189.63;5151349;27;20741;-76
2022/07/29 09:52:20;;;;;;;2.75;2.60;;;;;;;32.72;39.77;100194.06;5151453;27;20586;-78
2022/07/29 09:54:47;;;;;;;3.08;2.78;;;;;;;32.50;40.91;100193.91;5097612;27;20214;-75
2022/07/29 09:57:24;;;;;;;2.70;2.50;;;;;;;32.65;42.33;100187.44;5151141;27;20242;-75
2022/07/29 09:59:58;;;;;;;2.88;2.67;;;;;;;32.84;40.01;100182.41;5151188;27;20297;-73
2022/07/29 10:02:31;;;;;;;2.90;2.80;;;;;;;32.80;40.36;100180.94;5151614;27;20260;-74
2022/07/29 10:04:59;;;;;;;3.22;3.03;;;;;;;33.04;40.74;100180.03;5151375;27;20258;-76
2022/07/29 10:07:26;;;;;;;3.00;2.80;;;;;;;33.11;39.34;100174.09;5151993;27;20191;-76
2022/07/29 10:09:55;;;;;;;2.92;2.72;;;;;;;32.97;38.68;100168.03;5152028;27;20578;-77
2022/07/29 10:12:22;;;;;;;2.53;2.42;;;;;;;32.84;38.70;100177.03;5151803;27;20651;-76
2022/07/29 10:14:50;;;;;;;2.75;2.55;;;;;;;32.60;38.12;100156.56;5151020;27;20184;-75
2022/07/29 10:17:18;;;;;;;2.33;2.22;;;;;;;32.50;38.00;100126.78;5151385;27;20203;-73
2022/07/29 10:19:46;;;;;;;4.55;2.22;;;;;;;32.97;38.57;100176.09;5149442;27;20203;-73
2022/07/29 10:22:13;;;;;;;4.32;2.35;;;;;;;33.00;38.58;100138.28;5151929;27;20202;-74
2022/07/29 10:24:40;;;;;;;4.18;2.80;;;;;;;32.98;38.09;100176.00;5114729;27;20200;-76
2022/07/29 10:27:09;;;;;;;2.67;2.58;;;;;;;32.95;37.88;100170.84;5150401;27;20211;-72
2022/07/29 10:29:36;;;;;;;3.67;2.60;;;;;;;33.19;38.92;100160.06;5151225;27;20226;-74
2022/07/29 10:32:36;;;;;;;2.75;2.55;;;;;;;33.57;38.84;100168.69;5098254;27;20187;-74
2022/07/29 10:35:15;;;;;;;2.58;2.40;;;;;;;33.71;37.40;100168.47;5066709;28;20194;-73
2022/07/29 10:38:24;;;;;;;2.55;2.35;;;;;;;33.30;37.28;100158.28;5066568;28;20190;-73
2022/07/29 10:43:49;;;;;;;2.65;2.45;;;;;;;33.04;37.49;100137.03;5018830;28;20257;-74
2022/07/29 10:46:16;;;;;;;3.45;2.55;;;;;;;32.97;38.33;100149.22;5016781;28;20196;-73
2022/07/29 10:49:12;;;;;;;2.42;2.22;;;;;;;33.21;37.13;100147.38;5006739;28;20254;-74
2022/07/29 10:52:10;;;;;;;2.90;2.70;;;;;;;33.37;37.56;100153.28;5011144;28;20643;-75
2022/07/29 10:54:41;;;;;;;5.93;2.40;;;;;;;33.29;38.24;100153.00;5026814;28;20412;-73
2022/07/29 10:57:16;;;;;;;4.03;2.63;;;;;;;33.37;38.42;100139.81;5026469;28;20196;-74
2022/07/29 10:59:45;;;;;;;2.90;2.70;;;;;;;33.39;38.34;100111.00;5061714;28;20198;-75
2022/07/29 11:02:43;;;;;;;2.78;2.58;;;;;;;33.36;37.45;100138.09;5047110;28;20209;-75
2022/07/29 11:05:12;;;;;;;2.67;2.47;;;;;;;33.47;37.32;100137.25;5046784;28;20223;-76
2022/07/29 11:08:01;;;;;;;2.97;2.55;;;;;;;33.37;36.58;100123.69;5060862;28;20194;-74
2022/07/29 11:10:28;;;;;;;3.00;2.70;;;;;;;33.48;37.00;100133.59;5063663;27;20216;-77
2022/07/29 11:12:55;;;;;;;3.72;3.05;;;;;;;33.58;36.74;100124.69;5143844;27;20245;-74
2022/07/29 11:15:23;;;;;;;3.88;2.80;;;;;;;33.85;36.95;100141.31;5135141;27;20195;-75
2022/07/29 11:18:09;;;;;;;4.07;2.63;;;;;;;33.50;36.20;100116.38;5151139;27;20196;-74
2022/07/29 11:20:41;;;;;;;3.92;2.60;;;;;;;33.64;36.44;100118.00;5150635;27;20661;-76
2022/07/29 11:23:27;;;;;;;2.45;2.30;;;;;;;33.40;37.50;100110.00;5150789;27;20206;-76
2022/07/29 11:26:16;;;;;;;3.63;2.85;;;;;;;33.50;37.34;100128.97;5150929;27;20282;-76
2022/07/29 11:28:53;;;;;;;3.63;2.63;;;;;;;33.59;37.73;100121.03;5114232;27;20326;-75
2022/07/29 11:31:32;;;;;;;3.10;2.65;;;;;;;33.59;37.40;100115.66;5150755;27;20194;-75
2022/07/29 11:34:17;;;;;;;3.00;2.67;;;;;;;33.61;37.76;100107.44;5150153;27;20248;-75
2022/07/29 11:37:19;;;;;;;2.95;2.70;;;;;;;33.77;37.59;100124.09;5151265;27;20256;-75
2022/07/29 11:40:08;;;;;;;3.20;2.65;;;;;;;33.76;37.92;100117.88;5033870;28;20198;-74